sensor_id;sensor_type;location;lat;lon;timestamp;pressure;altitude;pressure_sealevel;temperature;humidity
15477;BME280;7840;42.702;23.296;2023-12-07T00:00:50;94677.44;;;5.18;100.00
15477;BME280;7840;42.702;23.296;2023-12-07T00:03:17;94685.16;;;5.13;100.00
15477;BME280;7840;42.702;23.296;2023-12-07T00:05:45;94683.69;;;5.17;100.00
15477;BME280;7840;42.702;23.296;2023-12-07T00:08:13;94687.81;;;5.55;100.00
15477;BME280;7840;42.702;23.296;2023-12-07T00:10:42;94687.19;;;5.71;100.00
15477;BME280;7840;42.702;23.296;2023-12-07T00:13:09;94688.31;;;5.75;100.00
15477;BME280;7840;42.702;23.296;2023-12-07T00:15:37;94682.47;;;5.91;100.00
15477;BME280;7840;42.702;23.296;2023-12-07T00:18:04;94692.75;;;5.93;100.00
15477;BME280;7840;42.702;23.296;2023-12-07T00:20:32;94689.88;;;5.94;100.00
15477;BME280;7840;42.702;23.296;2023-12-07T00:22:59;94686.72;;;6.04;100.00
15477;BME280;7840;42.702;23.296;2023-12-07T00:25:27;94685.06;;;6.03;100.00
15477;BME280;7840;42.702;23.296;2023-12-07T00:27:56;94689.81;;;5.71;100.00
15477;BME280;7840;42.702;23.296;2023-12-07T00:30:24;94689.41;;;5.56;100.00
15477;BME280;7840;42.702;23.296;2023-12-07T00:32:51;94689.34;;;5.74;100.00
15477;BME280;7840;42.702;23.296;2023-12-07T00:35:19;94682.88;;;5.88;100.00
15477;BME280;7840;42.702;23.296;2023-12-07T00:37:48;94685.19;;;5.96;100.00
15477;BME280;7840;42.702;23.296;2023-12-07T00:40:16;94688.59;;;5.85;100.00
15477;BME280;7840;42.702;23.296;2023-12-07T00:42:43;94683.97;;;5.69;100.00
15477;BME280;7840;42.702;23.296;2023-12-07T00:45:13;94695.84;;;5.60;100.00
15477;BME280;7840;42.702;23.296;2023-12-07T00:47:41;94695.78;;;5.36;100.00
15477;BME280;7840;42.702;23.296;2023-12-07T00:50:11;94693.31;;;5.23;100.00
15477;BME280;7840;42.702;23.296;2023-12-07T00:52:39;94693.00;;;5.31;100.00
15477;BME280;7840;42.702;23.296;2023-12-07T00:55:07;94683.03;;;5.52;100.00
15477;BME280;7840;42.702;23.296;2023-12-07T00:57:35;94682.19;;;5.39;100.00
15477;BME280;7840;42.702;23.296;2023-12-07T01:00:02;94682.38;;;5.68;100.00
15477;BME280;7840;42.702;23.296;2023-12-07T01:02:32;94679.91;;;5.85;100.00
15477;BME280;7840;42.702;23.296;2023-12-07T01:04:59;94682.00;;;5.94;100.00
15477;BME280;7840;42.702;23.296;2023-12-07T01:07:27;94684.84;;;5.93;100.00
15477;BME280;7840;42.702;23.296;2023-12-07T01:09:55;94682.88;;;5.88;100.00
15477;BME280;7840;42.702;23.296;2023-12-07T01:12:22;94680.63;;;6.03;100.00
15477;BME280;7840;42.702;23.296;2023-12-07T01:14:50;94684.84;;;5.93;100.00
15477;BME280;7840;42.702;23.296;2023-12-07T01:17:18;94682.16;;;5.81;100.00
15477;BME280;7840;42.702;23.296;2023-12-07T01:19:47;94678.16;;;5.67;100.00
15477;BME280;7840;42.702;23.296;2023-12-07T01:22:15;94686.34;;;5.59;100.00
15477;BME280;7840;42.702;23.296;2023-12-07T01:24:42;94682.72;;;5.71;100.00
15477;BME280;7840;42.702;23.296;2023-12-07T01:27:10;94675.78;;;5.77;100.00
15477;BME280;7840;42.702;23.296;2023-12-07T01:29:38;94680.25;;;5.88;100.00
15477;BME280;7840;42.702;23.296;2023-12-07T01:32:06;94674.75;;;5.90;100.00
15477;BME280;7840;42.702;23.296;2023-12-07T01:34:36;94669.50;;;5.90;100.00
15477;BME280;7840;42.702;23.296;2023-12-07T01:37:05;94673.69;;;5.67;100.00
15477;BME280;7840;42.702;23.296;2023-12-07T01:39:34;94675.84;;;5.17;100.00
15477;BME280;7840;42.702;23.296;2023-12-07T01:42:01;94673.06;;;5.12;100.00
15477;BME280;7840;42.702;23.296;2023-12-07T01:44:29;94673.06;;;5.12;100.00
15477;BME280;7840;42.702;23.296;2023-12-07T01:46:56;94676.78;;;5.34;100.00
15477;BME280;7840;42.702;23.296;2023-12-07T01:49:24;94673.59;;;5.32;100.00
15477;BME280;7840;42.702;23.296;2023-12-07T01:51:52;94672.94;;;5.48;100.00
15477;BME280;7840;42.702;23.296;2023-12-07T01:54:21;94665.47;;;5.64;100.00
15477;BME280;7840;42.702;23.296;2023-12-07T01:56:50;94663.31;;;5.72;100.00
15477;BME280;7840;42.702;23.296;2023-12-07T01:59:17;94661.25;;;5.74;100.00
15477;BME280;7840;42.702;23.296;2023-12-07T02:01:45;94661.84;;;5.76;100.00
15477;BME280;7840;42.702;23.296;2023-12-07T02:04:13;94659.69;;;5.97;100.00
15477;BME280;7840;42.702;23.296;2023-12-07T02:06:41;94654.78;;;6.00;100.00
15477;BME280;7840;42.702;23.296;2023-12-07T02:09:08;94655.16;;;6.04;100.00
15477;BME280;7840;42.702;23.296;2023-12-07T02:11:37;94670.78;;;6.11;100.00
15477;BME280;7840;42.702;23.296;2023-12-07T02:14:05;94662.22;;;6.15;100.00
15477;BME280;7840;42.702;23.296;2023-12-07T02:16:38;94665.78;;;6.21;100.00
15477;BME280;7840;42.702;23.296;2023-12-07T02:19:18;94662.78;;;6.29;100.00
15477;BME280;7840;42.702;23.296;2023-12-07T02:21:55;94665.53;;;6.34;100.00
15477;BME280;7840;42.702;23.296;2023-12-07T02:24:27;94658.69;;;6.33;100.00
15477;BME280;7840;42.702;23.296;2023-12-07T02:26:56;94655.28;;;5.97;100.00
15477;BME280;7840;42.702;23.296;2023-12-07T02:29:24;94662.34;;;6.09;100.00
15477;BME280;7840;42.702;23.296;2023-12-07T02:31:51;94661.59;;;5.90;100.00
15477;BME280;7840;42.702;23.296;2023-12-07T02:34:19;94661.16;;;5.81;100.00
15477;BME280;7840;42.702;23.296;2023-12-07T02:36:49;94658.50;;;5.69;100.00
15477;BME280;7840;42.702;23.296;2023-12-07T02:39:20;94664.22;;;5.66;100.00
15477;BME280;7840;42.702;23.296;2023-12-07T02:41:50;94658.13;;;5.42;100.00
15477;BME280;7840;42.702;23.296;2023-12-07T02:44:19;94664.78;;;5.27;100.00
15477;BME280;7840;42.702;23.296;2023-12-07T02:46:47;94654.19;;;5.33;100.00
15477;BME280;7840;42.702;23.296;2023-12-07T02:49:15;94651.84;;;5.43;100.00
15477;BME280;7840;42.702;23.296;2023-12-07T02:51:42;94651.22;;;5.41;100.00
15477;BME280;7840;42.702;23.296;2023-12-07T02:54:10;94647.94;;;5.46;100.00
15477;BME280;7840;42.702;23.296;2023-12-07T02:56:38;94645.38;;;5.28;100.00
15477;BME280;7840;42.702;23.296;2023-12-07T02:59:05;94652.53;;;5.51;100.00
15477;BME280;7840;42.702;23.296;2023-12-07T03:01:37;94651.88;;;5.67;100.00
15477;BME280;7840;42.702;23.296;2023-12-07T03:04:05;94656.28;;;5.55;100.00
15477;BME280;7840;42.702;23.296;2023-12-07T03:06:32;94644.66;;;5.51;100.00
15477;BME280;7840;42.702;23.296;2023-12-07T03:09:00;94656.66;;;5.28;100.00
15477;BME280;7840;42.702;23.296;2023-12-07T03:11:28;94655.97;;;5.21;100.00
15477;BME280;7840;42.702;23.296;2023-12-07T03:13:55;94659.75;;;5.25;100.00
15477;BME280;7840;42.702;23.296;2023-12-07T03:16:23;94654.78;;;5.35;100.00
15477;BME280;7840;42.702;23.296;2023-12-07T03:18:52;94658.22;;;5.47;100.00
15477;BME280;7840;42.702;23.296;2023-12-07T03:21:19;94656.78;;;5.75;100.00
15477;BME280;7840;42.702;23.296;2023-12-07T03:23:47;94656.69;;;5.82;100.00
15477;BME280;7840;42.702;23.296;2023-12-07T03:26:16;94659.03;;;6.01;100.00
15477;BME280;7840;42.702;23.296;2023-12-07T03:28:43;94664.63;;;6.17;100.00
15477;BME280;7840;42.702;23.296;2023-12-07T03:31:11;94669.09;;;6.28;100.00
15477;BME280;7840;42.702;23.296;2023-12-07T03:33:38;94674.91;;;6.30;100.00
15477;BME280;7840;42.702;23.296;2023-12-07T03:36:11;94675.50;;;6.32;100.00
15477;BME280;7840;42.702;23.296;2023-12-07T03:38:39;94679.72;;;6.33;100.00
15477;BME280;7840;42.702;23.296;2023-12-07T03:41:07;94672.88;;;6.32;100.00
15477;BME280;7840;42.702;23.296;2023-12-07T03:43:34;94676.41;;;6.38;100.00
15477;BME280;7840;42.702;23.296;2023-12-07T03:46:04;94681.53;;;6.44;100.00
15477;BME280;7840;42.702;23.296;2023-12-07T03:48:32;94682.56;;;6.43;100.00
15477;BME280;7840;42.702;23.296;2023-12-07T03:51:00;94679.03;;;6.02;100.00
15477;BME280;7840;42.702;23.296;2023-12-07T03:53:29;94681.66;;;5.61;100.00
15477;BME280;7840;42.702;23.296;2023-12-07T03:55:57;94682.97;;;5.40;100.00
15477;BME280;7840;42.702;23.296;2023-12-07T03:58:24;94666.13;;;5.59;100.00
15477;BME280;7840;42.702;23.296;2023-12-07T04:00:52;94673.06;;;5.84;100.00
15477;BME280;7840;42.702;23.296;2023-12-07T04:03:20;94667.72;;;6.02;100.00
15477;BME280;7840;42.702;23.296;2023-12-07T04:05:47;94674.00;;;6.01;100.00
15477;BME280;7840;42.702;23.296;2023-12-07T04:08:15;94671.47;;;5.94;100.00
15477;BME280;7840;42.702;23.296;2023-12-07T04:10:44;94678.31;;;5.95;100.00
15477;BME280;7840;42.702;23.296;2023-12-07T04:13:11;94678.06;;;5.85;100.00
15477;BME280;7840;42.702;23.296;2023-12-07T04:15:39;94673.53;;;5.92;100.00
15477;BME280;7840;42.702;23.296;2023-12-07T04:18:07;94678.97;;;5.79;100.00
15477;BME280;7840;42.702;23.296;2023-12-07T04:20:34;94682.63;;;5.78;100.00
15477;BME280;7840;42.702;23.296;2023-12-07T04:23:02;94691.88;;;5.81;100.00
15477;BME280;7840;42.702;23.296;2023-12-07T04:25:29;94694.75;;;5.79;100.00
15477;BME280;7840;42.702;23.296;2023-12-07T04:27:59;94691.56;;;5.77;100.00
15477;BME280;7840;42.702;23.296;2023-12-07T04:30:27;94695.59;;;5.49;100.00
15477;BME280;7840;42.702;23.296;2023-12-07T04:32:54;94701.28;;;5.46;100.00
15477;BME280;7840;42.702;23.296;2023-12-07T04:35:22;94701.09;;;5.60;100.00
15477;BME280;7840;42.702;23.296;2023-12-07T04:37:49;94695.06;;;5.29;100.00
15477;BME280;7840;42.702;23.296;2023-12-07T04:40:17;94711.78;;;5.16;100.00
15477;BME280;7840;42.702;23.296;2023-12-07T04:42:45;94706.13;;;5.31;100.00
15477;BME280;7840;42.702;23.296;2023-12-07T04:45:14;94704.03;;;5.52;100.00
15477;BME280;7840;42.702;23.296;2023-12-07T04:47:41;94704.03;;;5.52;100.00
15477;BME280;7840;42.702;23.296;2023-12-07T04:50:09;94709.63;;;5.43;100.00
15477;BME280;7840;42.702;23.296;2023-12-07T04:52:37;94699.44;;;5.35;100.00
15477;BME280;7840;42.702;23.296;2023-12-07T04:55:06;94709.47;;;5.38;100.00
15477;BME280;7840;42.702;23.296;2023-12-07T04:57:34;94712.25;;;5.43;100.00
15477;BME280;7840;42.702;23.296;2023-12-07T05:00:02;94712.66;;;5.40;100.00
15477;BME280;7840;42.702;23.296;2023-12-07T05:02:33;94717.75;;;5.24;100.00
15477;BME280;7840;42.702;23.296;2023-12-07T05:05:01;94712.59;;;5.17;100.00
15477;BME280;7840;42.702;23.296;2023-12-07T05:07:29;94714.97;;;5.18;100.00
15477;BME280;7840;42.702;23.296;2023-12-07T05:09:56;94716.63;;;5.31;100.00
15477;BME280;7840;42.702;23.296;2023-12-07T05:12:24;94713.38;;;5.47;100.00
15477;BME280;7840;42.702;23.296;2023-12-07T05:14:52;94716.16;;;5.53;100.00
15477;BME280;7840;42.702;23.296;2023-12-07T05:17:20;94720.50;;;5.59;100.00
15477;BME280;7840;42.702;23.296;2023-12-07T05:20:17;94712.75;;;5.64;100.00
15477;BME280;7840;42.702;23.296;2023-12-07T05:23:02;94718.91;;;5.58;100.00
15477;BME280;7840;42.702;23.296;2023-12-07T05:25:52;94718.91;;;5.58;100.00
15477;BME280;7840;42.702;23.296;2023-12-07T05:28:41;94717.56;;;5.67;100.00
15477;BME280;7840;42.702;23.296;2023-12-07T05:31:16;94727.63;;;5.70;100.00
15477;BME280;7840;42.702;23.296;2023-12-07T05:33:44;94730.25;;;5.70;100.00
15477;BME280;7840;42.702;23.296;2023-12-07T05:38:54;94737.31;;;5.69;100.00
15477;BME280;7840;42.702;23.296;2023-12-07T05:41:22;94739.28;;;5.74;100.00
15477;BME280;7840;42.702;23.296;2023-12-07T05:43:50;94737.13;;;5.71;100.00
15477;BME280;7840;42.702;23.296;2023-12-07T05:46:23;94738.16;;;5.70;100.00
15477;BME280;7840;42.702;23.296;2023-12-07T05:48:54;94740.63;;;5.65;100.00
15477;BME280;7840;42.702;23.296;2023-12-07T05:51:22;94738.94;;;5.70;100.00
15477;BME280;7840;42.702;23.296;2023-12-07T05:53:50;94748.56;;;5.76;100.00
15477;BME280;7840;42.702;23.296;2023-12-07T05:56:20;94741.25;;;5.48;100.00
15477;BME280;7840;42.702;23.296;2023-12-07T05:58:48;94741.94;;;5.56;100.00
15477;BME280;7840;42.702;23.296;2023-12-07T06:01:17;94743.88;;;5.48;100.00
15477;BME280;7840;42.702;23.296;2023-12-07T06:03:45;94750.75;;;5.49;100.00
15477;BME280;7840;42.702;23.296;2023-12-07T06:06:13;94754.69;;;5.40;100.00
15477;BME280;7840;42.702;23.296;2023-12-07T06:08:41;94754.25;;;5.43;100.00
15477;BME280;7840;42.702;23.296;2023-12-07T06:11:09;94754.69;;;5.40;100.00
15477;BME280;7840;42.702;23.296;2023-12-07T06:13:38;94755.09;;;5.26;100.00
15477;BME280;7840;42.702;23.296;2023-12-07T06:16:06;94750.56;;;5.14;100.00
15477;BME280;7840;42.702;23.296;2023-12-07T06:18:33;94750.28;;;5.04;100.00
15477;BME280;7840;42.702;23.296;2023-12-07T06:21:01;94754.13;;;5.20;100.00
15477;BME280;7840;42.702;23.296;2023-12-07T06:23:29;94758.97;;;5.23;100.00
15477;BME280;7840;42.702;23.296;2023-12-07T06:25:57;94748.38;;;5.11;100.00
15477;BME280;7840;42.702;23.296;2023-12-07T06:28:24;94755.88;;;5.44;100.00
15477;BME280;7840;42.702;23.296;2023-12-07T06:30:54;94752.66;;;5.42;100.00
15477;BME280;7840;42.702;23.296;2023-12-07T06:33:23;94752.03;;;5.59;100.00
15477;BME280;7840;42.702;23.296;2023-12-07T06:35:50;94757.16;;;5.54;100.00
15477;BME280;7840;42.702;23.296;2023-12-07T06:38:18;94766.63;;;5.55;100.00
15477;BME280;7840;42.702;23.296;2023-12-07T06:40:46;94767.56;;;5.30;100.00
15477;BME280;7840;42.702;23.296;2023-12-07T06:43:14;94769.47;;;5.23;100.00
15477;BME280;7840;42.702;23.296;2023-12-07T06:45:41;94770.91;;;5.19;100.00
15477;BME280;7840;42.702;23.296;2023-12-07T06:48:10;94767.19;;;5.27;100.00
15477;BME280;7840;42.702;23.296;2023-12-07T06:50:40;94772.09;;;5.23;100.00
15477;BME280;7840;42.702;23.296;2023-12-07T06:53:07;94774.13;;;5.21;100.00
15477;BME280;7840;42.702;23.296;2023-12-07T06:55:35;94769.47;;;5.23;100.00
15477;BME280;7840;42.702;23.296;2023-12-07T06:58:03;94774.25;;;5.26;100.00
15477;BME280;7840;42.702;23.296;2023-12-07T07:00:30;94769.22;;;5.43;100.00
15477;BME280;7840;42.702;23.296;2023-12-07T07:02:59;94771.41;;;5.28;100.00
15477;BME280;7840;42.702;23.296;2023-12-07T07:05:28;94774.41;;;5.31;100.00
15477;BME280;7840;42.702;23.296;2023-12-07T07:07:55;94785.31;;;5.46;100.00
15477;BME280;7840;42.702;23.296;2023-12-07T07:10:23;94771.78;;;5.61;100.00
15477;BME280;7840;42.702;23.296;2023-12-07T07:12:52;94777.94;;;5.55;100.00
15477;BME280;7840;42.702;23.296;2023-12-07T07:15:20;94789.44;;;5.42;100.00
15477;BME280;7840;42.702;23.296;2023-12-07T07:17:49;94777.13;;;5.25;100.00
15477;BME280;7840;42.702;23.296;2023-12-07T07:20:17;94784.13;;;5.12;100.00
15477;BME280;7840;42.702;23.296;2023-12-07T07:22:46;94791.41;;;5.10;100.00
15477;BME280;7840;42.702;23.296;2023-12-07T07:25:13;94784.75;;;5.26;100.00
15477;BME280;7840;42.702;23.296;2023-12-07T07:27:42;94796.53;;;5.24;100.00
15477;BME280;7840;42.702;23.296;2023-12-07T07:30:10;94788.13;;;5.33;100.00
15477;BME280;7840;42.702;23.296;2023-12-07T07:32:38;94789.28;;;5.01;100.00
15477;BME280;7840;42.702;23.296;2023-12-07T07:35:07;94795.44;;;4.94;100.00
15477;BME280;7840;42.702;23.296;2023-12-07T07:37:38;94800.06;;;4.92;100.00
15477;BME280;7840;42.702;23.296;2023-12-07T07:40:08;94795.81;;;4.73;100.00
15477;BME280;7840;42.702;23.296;2023-12-07T07:42:38;94802.63;;;4.81;100.00
15477;BME280;7840;42.702;23.296;2023-12-07T07:45:07;94811.72;;;4.60;100.00
15477;BME280;7840;42.702;23.296;2023-12-07T07:47:36;94807.56;;;4.46;100.00
15477;BME280;7840;42.702;23.296;2023-12-07T07:50:26;94804.94;;;4.46;100.00
15477;BME280;7840;42.702;23.296;2023-12-07T07:52:55;94809.19;;;4.47;100.00
15477;BME280;7840;42.702;23.296;2023-12-07T07:55:24;94812.94;;;4.32;100.00
15477;BME280;7840;42.702;23.296;2023-12-07T07:57:51;94811.88;;;4.40;100.00
15477;BME280;7840;42.702;23.296;2023-12-07T08:00:20;94813.94;;;4.31;100.00
15477;BME280;7840;42.702;23.296;2023-12-07T08:02:48;94818.78;;;4.34;100.00
15477;BME280;7840;42.702;23.296;2023-12-07T08:05:16;94821.22;;;4.29;100.00
15477;BME280;7840;42.702;23.296;2023-12-07T08:07:44;94824.44;;;4.31;100.00
15477;BME280;7840;42.702;23.296;2023-12-07T08:10:12;94825.13;;;4.20;100.00
15477;BME280;7840;42.702;23.296;2023-12-07T08:12:41;94826.75;;;4.21;100.00
15477;BME280;7840;42.702;23.296;2023-12-07T08:15:10;94842.13;;;4.11;100.00
15477;BME280;7840;42.702;23.296;2023-12-07T08:17:39;94835.72;;;4.07;100.00
15477;BME280;7840;42.702;23.296;2023-12-07T08:20:20;94841.94;;;4.13;100.00
15477;BME280;7840;42.702;23.296;2023-12-07T08:22:51;94847.97;;;4.13;100.00
15477;BME280;7840;42.702;23.296;2023-12-07T08:25:19;94845.75;;;4.10;100.00
15477;BME280;7840;42.702;23.296;2023-12-07T08:27:49;94857.41;;;3.82;100.00
15477;BME280;7840;42.702;23.296;2023-12-07T08:30:16;94848.97;;;3.80;100.00
15477;BME280;7840;42.702;23.296;2023-12-07T08:32:45;94847.34;;;3.79;100.00
15477;BME280;7840;42.702;23.296;2023-12-07T08:35:12;94857.06;;;3.72;100.00
15477;BME280;7840;42.702;23.296;2023-12-07T08:37:40;94854.00;;;3.75;100.00
15477;BME280;7840;42.702;23.296;2023-12-07T08:40:08;94854.59;;;3.77;100.00
15477;BME280;7840;42.702;23.296;2023-12-07T08:42:38;94846.88;;;3.89;100.00
15477;BME280;7840;42.702;23.296;2023-12-07T08:45:08;94863.03;;;3.86;100.00
15477;BME280;7840;42.702;23.296;2023-12-07T08:47:35;94858.63;;;3.80;100.00
15477;BME280;7840;42.702;23.296;2023-12-07T08:50:04;94865.00;;;3.91;100.00
15477;BME280;7840;42.702;23.296;2023-12-07T08:52:33;94861.06;;;3.75;100.00
15477;BME280;7840;42.702;23.296;2023-12-07T08:55:01;94867.59;;;3.59;100.00
15477;BME280;7840;42.702;23.296;2023-12-07T08:57:29;94869.47;;;3.45;100.00
15477;BME280;7840;42.702;23.296;2023-12-07T08:59:57;94863.53;;;3.63;100.00
15477;BME280;7840;42.702;23.296;2023-12-07T09:02:27;94876.47;;;3.58;100.00
15477;BME280;7840;42.702;23.296;2023-12-07T09:04:54;94870.22;;;3.59;100.00
15477;BME280;7840;42.702;23.296;2023-12-07T09:07:22;94871.22;;;3.58;100.00
15477;BME280;7840;42.702;23.296;2023-12-07T09:09:49;94859.16;;;3.57;100.00
15477;BME280;7840;42.702;23.296;2023-12-07T09:12:17;94869.63;;;3.57;100.00
15477;BME280;7840;42.702;23.296;2023-12-07T09:14:44;94875.28;;;3.54;100.00
15477;BME280;7840;42.702;23.296;2023-12-07T09:17:15;94865.16;;;3.64;100.00
15477;BME280;7840;42.702;23.296;2023-12-07T09:19:46;94864.78;;;3.54;100.00
15477;BME280;7840;42.702;23.296;2023-12-07T09:22:14;94872.06;;;3.52;100.00
15477;BME280;7840;42.702;23.296;2023-12-07T09:24:42;94869.19;;;3.60;100.00
15477;BME280;7840;42.702;23.296;2023-12-07T09:27:10;94865.66;;;3.41;100.00
15477;BME280;7840;42.702;23.296;2023-12-07T09:29:36;94867.47;;;3.41;100.00
15477;BME280;7840;42.702;23.296;2023-12-07T09:32:06;94876.53;;;3.45;100.00
15477;BME280;7840;42.702;23.296;2023-12-07T09:34:33;94866.81;;;3.59;100.00
15477;BME280;7840;42.702;23.296;2023-12-07T09:37:10;94867.84;;;3.51;100.00
15477;BME280;7840;42.702;23.296;2023-12-07T09:39:38;94870.59;;;3.63;100.00
15477;BME280;7840;42.702;23.296;2023-12-07T09:42:06;94867.91;;;3.31;100.00
15477;BME280;7840;42.702;23.296;2023-12-07T09:44:33;94868.47;;;3.40;100.00
15477;BME280;7840;42.702;23.296;2023-12-07T09:47:01;94873.91;;;3.45;100.00
15477;BME280;7840;42.702;23.296;2023-12-07T09:49:30;94873.28;;;3.43;100.00
15477;BME280;7840;42.702;23.296;2023-12-07T09:51:59;94868.91;;;3.37;100.00
15477;BME280;7840;42.702;23.296;2023-12-07T09:54:30;94864.09;;;3.20;100.00
15477;BME280;7840;42.702;23.296;2023-12-07T09:56:57;94861.91;;;3.11;100.00
15477;BME280;7840;42.702;23.296;2023-12-07T09:59:25;94871.56;;;3.23;100.00
15477;BME280;7840;42.702;23.296;2023-12-07T10:01:53;94867.72;;;3.19;100.00
15477;BME280;7840;42.702;23.296;2023-12-07T10:04:23;94865.34;;;3.11;100.00
15477;BME280;7840;42.702;23.296;2023-12-07T10:06:52;94873.59;;;2.95;100.00
15477;BME280;7840;42.702;23.296;2023-12-07T10:09:20;94873.00;;;2.99;100.00
15477;BME280;7840;42.702;23.296;2023-12-07T10:11:49;94870.97;;;3.08;100.00
15477;BME280;7840;42.702;23.296;2023-12-07T10:14:20;94880.63;;;3.14;100.00
15477;BME280;7840;42.702;23.296;2023-12-07T10:16:53;94870.41;;;2.93;100.00
15477;BME280;7840;42.702;23.296;2023-12-07T10:19:22;94880.06;;;2.72;100.00
15477;BME280;7840;42.702;23.296;2023-12-07T10:21:51;94876.47;;;2.67;100.00
15477;BME280;7840;42.702;23.296;2023-12-07T10:24:21;94876.66;;;2.79;100.00
15477;BME280;7840;42.702;23.296;2023-12-07T10:26:51;94863.38;;;2.67;100.00
15477;BME280;7840;42.702;23.296;2023-12-07T10:29:19;94869.63;;;2.59;100.00
15477;BME280;7840;42.702;23.296;2023-12-07T10:31:49;94864.59;;;2.58;100.00
15477;BME280;7840;42.702;23.296;2023-12-07T10:34:18;94866.78;;;2.81;100.00
15477;BME280;7840;42.702;23.296;2023-12-07T10:36:47;94865.59;;;2.90;100.00
15477;BME280;7840;42.702;23.296;2023-12-07T10:39:15;94867.75;;;3.06;100.00
15477;BME280;7840;42.702;23.296;2023-12-07T10:41:44;94861.41;;;2.62;100.00
15477;BME280;7840;42.702;23.296;2023-12-07T10:44:14;94872.44;;;2.51;100.00
15477;BME280;7840;42.702;23.296;2023-12-07T10:46:44;94863.38;;;2.60;100.00
15477;BME280;7840;42.702;23.296;2023-12-07T10:49:17;94872.44;;;2.51;100.00
15477;BME280;7840;42.702;23.296;2023-12-07T10:51:51;94864.81;;;2.69;100.00
15477;BME280;7840;42.702;23.296;2023-12-07T10:54:30;94862.00;;;2.64;100.00
15477;BME280;7840;42.702;23.296;2023-12-07T10:57:02;94872.22;;;2.46;100.00
15477;BME280;7840;42.702;23.296;2023-12-07T10:59:36;94871.84;;;2.42;100.00
15477;BME280;7840;42.702;23.296;2023-12-07T11:02:07;94878.06;;;2.22;100.00
15477;BME280;7840;42.702;23.296;2023-12-07T11:04:37;94880.69;;;2.35;100.00
15477;BME280;7840;42.702;23.296;2023-12-07T11:07:13;94879.47;;;2.37;100.00
15477;BME280;7840;42.702;23.296;2023-12-07T11:09:45;94877.06;;;2.36;100.00
15477;BME280;7840;42.702;23.296;2023-12-07T11:12:22;94878.28;;;2.27;100.00
15477;BME280;7840;42.702;23.296;2023-12-07T11:14:57;94880.69;;;2.35;100.00
15477;BME280;7840;42.702;23.296;2023-12-07T11:17:26;94870.59;;;2.18;100.00
15477;BME280;7840;42.702;23.296;2023-12-07T11:19:55;94877.84;;;2.16;100.00
15477;BME280;7840;42.702;23.296;2023-12-07T11:22:23;94866.59;;;2.09;100.00
15477;BME280;7840;42.702;23.296;2023-12-07T11:24:56;94872.59;;;2.03;100.00
15477;BME280;7840;42.702;23.296;2023-12-07T11:27:30;94869.38;;;1.88;100.00
15477;BME280;7840;42.702;23.296;2023-12-07T11:30:01;94878.63;;;1.97;100.00
15477;BME280;7840;42.702;23.296;2023-12-07T11:32:30;94878.63;;;2.10;100.00
15477;BME280;7840;42.702;23.296;2023-12-07T11:35:02;94879.84;;;2.08;100.00
15477;BME280;7840;42.702;23.296;2023-12-07T11:38:00;94869.00;;;2.17;100.00
15477;BME280;7840;42.702;23.296;2023-12-07T11:40:29;94875.44;;;2.15;100.00
15477;BME280;7840;42.702;23.296;2023-12-07T11:43:00;94862.75;;;2.05;100.00
15477;BME280;7840;42.702;23.296;2023-12-07T11:45:46;94857.72;;;1.97;100.00
15477;BME280;7840;42.702;23.296;2023-12-07T11:48:15;94849.69;;;2.12;100.00
15477;BME280;7840;42.702;23.296;2023-12-07T11:50:58;94857.72;;;1.97;100.00
15477;BME280;7840;42.702;23.296;2023-12-07T11:53:27;94859.78;;;2.22;100.00
15477;BME280;7840;42.702;23.296;2023-12-07T11:55:56;94861.75;;;2.19;100.00
15477;BME280;7840;42.702;23.296;2023-12-07T11:58:25;94861.59;;;2.21;100.00
15477;BME280;7840;42.702;23.296;2023-12-07T12:00:54;94860.59;;;2.29;100.00
15477;BME280;7840;42.702;23.296;2023-12-07T12:03:23;94858.56;;;2.44;100.00
15477;BME280;7840;42.702;23.296;2023-12-07T12:05:51;94855.38;;;2.55;100.00
15477;BME280;7840;42.702;23.296;2023-12-07T12:08:19;94855.38;;;2.49;100.00
15477;BME280;7840;42.702;23.296;2023-12-07T12:10:51;94852.94;;;2.47;100.00
15477;BME280;7840;42.702;23.296;2023-12-07T12:13:19;94861.41;;;2.56;100.00
15477;BME280;7840;42.702;23.296;2023-12-07T12:15:54;94861.41;;;2.49;100.00
15477;BME280;7840;42.702;23.296;2023-12-07T12:18:22;94857.78;;;2.43;100.00
15477;BME280;7840;42.702;23.296;2023-12-07T12:20:52;94865.19;;;2.53;100.00
15477;BME280;7840;42.702;23.296;2023-12-07T12:23:19;94861.38;;;2.36;100.00
15477;BME280;7840;42.702;23.296;2023-12-07T12:25:48;94865.03;;;2.55;100.00
15477;BME280;7840;42.702;23.296;2023-12-07T12:28:17;94863.59;;;2.45;100.00
15477;BME280;7840;42.702;23.296;2023-12-07T12:30:48;94854.94;;;2.58;100.00
15477;BME280;7840;42.702;23.296;2023-12-07T12:33:17;94859.38;;;2.64;100.00
15477;BME280;7840;42.702;23.296;2023-12-07T12:35:45;94851.16;;;2.54;100.00
15477;BME280;7840;42.702;23.296;2023-12-07T12:38:13;94862.19;;;2.69;100.00
15477;BME280;7840;42.702;23.296;2023-12-07T12:40:41;94858.16;;;2.73;100.00
15477;BME280;7840;42.702;23.296;2023-12-07T12:43:09;94856.16;;;2.76;100.00
15477;BME280;7840;42.702;23.296;2023-12-07T12:45:37;94859.78;;;2.61;100.00
15477;BME280;7840;42.702;23.296;2023-12-07T12:48:05;94865.19;;;2.53;100.00
15477;BME280;7840;42.702;23.296;2023-12-07T12:50:36;94876.66;;;2.39;100.00
15477;BME280;7840;42.702;23.296;2023-12-07T12:53:06;94868.22;;;2.57;100.00
15477;BME280;7840;42.702;23.296;2023-12-07T12:55:35;94873.03;;;2.20;100.00
15477;BME280;7840;42.702;23.296;2023-12-07T12:58:03;94872.84;;;2.35;100.00
15477;BME280;7840;42.702;23.296;2023-12-07T13:00:31;94874.66;;;2.41;100.00
15477;BME280;7840;42.702;23.296;2023-12-07T13:03:00;94876.03;;;2.17;100.00
15477;BME280;7840;42.702;23.296;2023-12-07T13:05:28;94886.50;;;2.30;100.00
15477;BME280;7840;42.702;23.296;2023-12-07T13:07:57;94883.88;;;2.17;100.00
15477;BME280;7840;42.702;23.296;2023-12-07T13:10:25;94890.31;;;2.21;100.00
15477;BME280;7840;42.702;23.296;2023-12-07T13:12:53;94892.75;;;2.23;100.00